sensor_id;sensor_type;location;lat;lon;timestamp;temperature;humidity
5136;DHT22;2586;48.710;9.202;2022-11-18T00:01:31;7.80;1.00
5136;DHT22;2586;48.710;9.202;2022-11-18T00:03:57;7.70;2.10
5136;DHT22;2586;48.710;9.202;2022-11-18T00:06:25;7.70;23.90
5136;DHT22;2586;48.710;9.202;2022-11-18T00:08:51;7.80;24.40
5136;DHT22;2586;48.710;9.202;2022-11-18T00:11:20;7.80;1.00
5136;DHT22;2586;48.710;9.202;2022-11-18T00:14:05;7.80;13.50
5136;DHT22;2586;48.710;9.202;2022-11-18T00:16:52;7.80;32.90
5136;DHT22;2586;48.710;9.202;2022-11-18T00:19:20;7.80;28.70
5136;DHT22;2586;48.710;9.202;2022-11-18T00:21:46;7.80;60.30
5136;DHT22;2586;48.710;9.202;2022-11-18T00:24:12;7.80;65.50
5136;DHT22;2586;48.710;9.202;2022-11-18T00:26:37;7.80;97.10
5136;DHT22;2586;48.710;9.202;2022-11-18T00:29:03;7.80;99.20
5136;DHT22;2586;48.710;9.202;2022-11-18T00:31:29;7.90;99.90
5136;DHT22;2586;48.710;9.202;2022-11-18T00:33:55;7.90;99.90
5136;DHT22;2586;48.710;9.202;2022-11-18T00:36:20;7.80;94.20
5136;DHT22;2586;48.710;9.202;2022-11-18T00:38:46;7.70;99.90
5136;DHT22;2586;48.710;9.202;2022-11-18T00:41:13;7.80;99.90
5136;DHT22;2586;48.710;9.202;2022-11-18T00:43:40;7.70;99.90
5136;DHT22;2586;48.710;9.202;2022-11-18T00:46:07;7.60;99.90
5136;DHT22;2586;48.710;9.202;2022-11-18T00:48:33;7.60;99.90
5136;DHT22;2586;48.710;9.202;2022-11-18T00:51:13;7.60;99.90
5136;DHT22;2586;48.710;9.202;2022-11-18T00:53:39;7.60;99.90
5136;DHT22;2586;48.710;9.202;2022-11-18T00:56:04;7.60;99.90
5136;DHT22;2586;48.710;9.202;2022-11-18T00:58:30;7.60;99.90
5136;DHT22;2586;48.710;9.202;2022-11-18T01:00:56;7.60;99.90
5136;DHT22;2586;48.710;9.202;2022-11-18T01:03:21;7.60;99.90
5136;DHT22;2586;48.710;9.202;2022-11-18T01:05:47;7.60;99.90
5136;DHT22;2586;48.710;9.202;2022-11-18T01:08:13;7.60;99.90
5136;DHT22;2586;48.710;9.202;2022-11-18T01:10:40;7.60;95.50
5136;DHT22;2586;48.710;9.202;2022-11-18T01:13:09;7.60;93.90
5136;DHT22;2586;48.710;9.202;2022-11-18T01:15:56;7.60;81.20
5136;DHT22;2586;48.710;9.202;2022-11-18T01:18:28;7.60;97.20
5136;DHT22;2586;48.710;9.202;2022-11-18T01:20:59;7.60;92.80
5136;DHT22;2586;48.710;9.202;2022-11-18T01:23:25;7.60;99.30
5136;DHT22;2586;48.710;9.202;2022-11-18T01:25:51;7.60;94.80
5136;DHT22;2586;48.710;9.202;2022-11-18T01:28:17;7.60;83.70
5136;DHT22;2586;48.710;9.202;2022-11-18T01:30:44;7.60;48.50
5136;DHT22;2586;48.710;9.202;2022-11-18T01:33:10;7.60;47.00
5136;DHT22;2586;48.710;9.202;2022-11-18T01:35:41;7.60;69.40
5136;DHT22;2586;48.710;9.202;2022-11-18T01:38:09;7.60;99.90
5136;DHT22;2586;48.710;9.202;2022-11-18T01:40:36;7.50;78.50
5136;DHT22;2586;48.710;9.202;2022-11-18T01:43:05;7.50;99.00
5136;DHT22;2586;48.710;9.202;2022-11-18T01:45:36;7.60;98.90
5136;DHT22;2586;48.710;9.202;2022-11-18T01:48:04;7.60;99.90
5136;DHT22;2586;48.710;9.202;2022-11-18T01:50:31;7.50;99.90
5136;DHT22;2586;48.710;9.202;2022-11-18T01:53:03;7.50;99.70
5136;DHT22;2586;48.710;9.202;2022-11-18T01:55:33;7.60;99.90
5136;DHT22;2586;48.710;9.202;2022-11-18T01:58:21;7.60;99.90
5136;DHT22;2586;48.710;9.202;2022-11-18T02:00:48;7.60;99.90
5136;DHT22;2586;48.710;9.202;2022-11-18T02:03:14;7.60;99.90
5136;DHT22;2586;48.710;9.202;2022-11-18T02:05:42;7.60;99.90
5136;DHT22;2586;48.710;9.202;2022-11-18T02:08:08;7.60;99.90
5136;DHT22;2586;48.710;9.202;2022-11-18T02:10:34;7.50;99.90
5136;DHT22;2586;48.710;9.202;2022-11-18T02:13:00;7.50;99.90
5136;DHT22;2586;48.710;9.202;2022-11-18T02:20:43;7.50;99.90
5136;DHT22;2586;48.710;9.202;2022-11-18T02:29:09;7.50;99.90
5136;DHT22;2586;48.710;9.202;2022-11-18T02:31:45;7.50;99.90
5136;DHT22;2586;48.710;9.202;2022-11-18T02:36:56;7.50;99.90
5136;DHT22;2586;48.710;9.202;2022-11-18T02:39:30;7.60;99.90
5136;DHT22;2586;48.710;9.202;2022-11-18T02:41:59;7.60;99.90
5136;DHT22;2586;48.710;9.202;2022-11-18T02:44:28;7.60;99.90
5136;DHT22;2586;48.710;9.202;2022-11-18T02:46:56;7.50;99.90
5136;DHT22;2586;48.710;9.202;2022-11-18T02:49:51;7.50;99.90
5136;DHT22;2586;48.710;9.202;2022-11-18T02:52:19;7.50;99.90
5136;DHT22;2586;48.710;9.202;2022-11-18T02:54:47;7.50;99.90
5136;DHT22;2586;48.710;9.202;2022-11-18T02:57:14;7.50;99.90
5136;DHT22;2586;48.710;9.202;2022-11-18T02:59:40;7.50;99.90
5136;DHT22;2586;48.710;9.202;2022-11-18T03:02:06;7.40;99.90
5136;DHT22;2586;48.710;9.202;2022-11-18T03:04:32;7.40;99.90
5136;DHT22;2586;48.710;9.202;2022-11-18T03:09:34;7.40;99.90
5136;DHT22;2586;48.710;9.202;2022-11-18T03:14:54;7.40;99.90
5136;DHT22;2586;48.710;9.202;2022-11-18T03:20:11;7.40;99.90
5136;DHT22;2586;48.710;9.202;2022-11-18T03:22:46;7.40;99.90
5136;DHT22;2586;48.710;9.202;2022-11-18T03:25:30;7.50;99.90
5136;DHT22;2586;48.710;9.202;2022-11-18T03:31:05;7.50;99.90
5136;DHT22;2586;48.710;9.202;2022-11-18T03:33:36;7.40;99.90
5136;DHT22;2586;48.710;9.202;2022-11-18T03:36:05;7.30;99.90
5136;DHT22;2586;48.710;9.202;2022-11-18T03:38:36;7.40;99.90
5136;DHT22;2586;48.710;9.202;2022-11-18T03:41:07;7.40;99.90
5136;DHT22;2586;48.710;9.202;2022-11-18T03:43:39;7.40;99.90
5136;DHT22;2586;48.710;9.202;2022-11-18T03:46:10;7.30;99.90
5136;DHT22;2586;48.710;9.202;2022-11-18T03:48:47;7.40;99.90
5136;DHT22;2586;48.710;9.202;2022-11-18T03:51:17;7.40;99.90
5136;DHT22;2586;48.710;9.202;2022-11-18T03:53:49;7.30;99.90
5136;DHT22;2586;48.710;9.202;2022-11-18T03:56:20;7.30;99.90
5136;DHT22;2586;48.710;9.202;2022-11-18T04:01:20;7.20;99.90
5136;DHT22;2586;48.710;9.202;2022-11-18T04:03:48;7.20;99.90
5136;DHT22;2586;48.710;9.202;2022-11-18T04:08:55;7.10;99.90
5136;DHT22;2586;48.710;9.202;2022-11-18T04:11:26;7.20;99.90
5136;DHT22;2586;48.710;9.202;2022-11-18T04:14:13;7.20;99.90
5136;DHT22;2586;48.710;9.202;2022-11-18T04:16:43;7.20;99.90
5136;DHT22;2586;48.710;9.202;2022-11-18T04:19:09;7.20;99.90
5136;DHT22;2586;48.710;9.202;2022-11-18T04:21:35;7.20;99.90
5136;DHT22;2586;48.710;9.202;2022-11-18T04:24:01;7.20;99.90
5136;DHT22;2586;48.710;9.202;2022-11-18T04:26:27;7.20;99.90
5136;DHT22;2586;48.710;9.202;2022-11-18T04:28:52;7.20;99.90
5136;DHT22;2586;48.710;9.202;2022-11-18T04:31:18;7.20;99.90
5136;DHT22;2586;48.710;9.202;2022-11-18T04:33:43;7.20;99.90
5136;DHT22;2586;48.710;9.202;2022-11-18T04:36:09;7.10;99.90
5136;DHT22;2586;48.710;9.202;2022-11-18T04:38:35;7.10;99.90
5136;DHT22;2586;48.710;9.202;2022-11-18T04:41:00;7.00;99.90
5136;DHT22;2586;48.710;9.202;2022-11-18T04:43:26;7.00;99.90
5136;DHT22;2586;48.710;9.202;2022-11-18T04:45:51;7.00;82.00
5136;DHT22;2586;48.710;9.202;2022-11-18T04:48:17;6.90;21.00
5136;DHT22;2586;48.710;9.202;2022-11-18T04:50:43;6.80;1.00
5136;DHT22;2586;48.710;9.202;2022-11-18T04:53:09;6.80;1.00
5136;DHT22;2586;48.710;9.202;2022-11-18T04:55:35;6.80;1.00
5136;DHT22;2586;48.710;9.202;2022-11-18T04:58:01;6.80;1.00
5136;DHT22;2586;48.710;9.202;2022-11-18T05:00:27;6.80;1.00
5136;DHT22;2586;48.710;9.202;2022-11-18T05:02:52;6.70;1.00
5136;DHT22;2586;48.710;9.202;2022-11-18T05:05:18;6.70;1.00
5136;DHT22;2586;48.710;9.202;2022-11-18T05:07:44;6.70;1.00
5136;DHT22;2586;48.710;9.202;2022-11-18T05:10:09;6.70;1.00
5136;DHT22;2586;48.710;9.202;2022-11-18T05:12:35;6.70;1.00
5136;DHT22;2586;48.710;9.202;2022-11-18T05:15:17;6.80;33.90
5136;DHT22;2586;48.710;9.202;2022-11-18T05:17:44;6.70;34.20
5136;DHT22;2586;48.710;9.202;2022-11-18T05:20:11;6.80;56.30
5136;DHT22;2586;48.710;9.202;2022-11-18T05:22:37;6.80;43.80
5136;DHT22;2586;48.710;9.202;2022-11-18T05:25:03;6.70;77.20
5136;DHT22;2586;48.710;9.202;2022-11-18T05:27:29;6.70;42.00
5136;DHT22;2586;48.710;9.202;2022-11-18T05:29:54;6.70;45.80
5136;DHT22;2586;48.710;9.202;2022-11-18T05:32:20;6.70;72.30
5136;DHT22;2586;48.710;9.202;2022-11-18T05:34:46;6.70;90.40
5136;DHT22;2586;48.710;9.202;2022-11-18T05:37:11;6.60;71.90
5136;DHT22;2586;48.710;9.202;2022-11-18T05:39:37;6.60;93.20
5136;DHT22;2586;48.710;9.202;2022-11-18T05:42:03;6.60;98.20
5136;DHT22;2586;48.710;9.202;2022-11-18T05:44:47;6.60;99.90
5136;DHT22;2586;48.710;9.202;2022-11-18T05:47:13;6.60;99.90
5136;DHT22;2586;48.710;9.202;2022-11-18T05:49:38;6.60;99.90
5136;DHT22;2586;48.710;9.202;2022-11-18T05:52:04;6.60;99.90
5136;DHT22;2586;48.710;9.202;2022-11-18T05:54:30;6.60;99.90
5136;DHT22;2586;48.710;9.202;2022-11-18T05:56:56;6.60;99.90
5136;DHT22;2586;48.710;9.202;2022-11-18T05:59:22;6.60;99.90
5136;DHT22;2586;48.710;9.202;2022-11-18T06:02:03;6.60;99.90
5136;DHT22;2586;48.710;9.202;2022-11-18T06:04:31;6.70;99.90
5136;DHT22;2586;48.710;9.202;2022-11-18T06:07:26;6.60;99.90
5136;DHT22;2586;48.710;9.202;2022-11-18T06:09:57;6.60;99.90
5136;DHT22;2586;48.710;9.202;2022-11-18T06:12:29;6.60;99.90
5136;DHT22;2586;48.710;9.202;2022-11-18T06:14:59;6.60;99.90
5136;DHT22;2586;48.710;9.202;2022-11-18T06:17:34;6.60;99.90
5136;DHT22;2586;48.710;9.202;2022-11-18T06:20:02;6.60;99.90
5136;DHT22;2586;48.710;9.202;2022-11-18T06:22:28;6.60;99.90
5136;DHT22;2586;48.710;9.202;2022-11-18T06:24:54;6.60;93.30
5136;DHT22;2586;48.710;9.202;2022-11-18T06:27:20;6.60;92.40
5136;DHT22;2586;48.710;9.202;2022-11-18T06:29:46;6.60;79.20
5136;DHT22;2586;48.710;9.202;2022-11-18T06:32:11;6.60;62.30
5136;DHT22;2586;48.710;9.202;2022-11-18T06:34:37;6.60;67.80
5136;DHT22;2586;48.710;9.202;2022-11-18T06:37:17;6.70;82.10
5136;DHT22;2586;48.710;9.202;2022-11-18T06:39:42;6.60;80.20
5136;DHT22;2586;48.710;9.202;2022-11-18T06:42:08;6.60;84.30
5136;DHT22;2586;48.710;9.202;2022-11-18T06:44:34;6.60;64.20
5136;DHT22;2586;48.710;9.202;2022-11-18T06:46:59;6.60;66.40
5136;DHT22;2586;48.710;9.202;2022-11-18T06:49:27;6.70;97.90
5136;DHT22;2586;48.710;9.202;2022-11-18T06:51:53;6.60;90.90
5136;DHT22;2586;48.710;9.202;2022-11-18T06:54:19;6.60;94.10
5136;DHT22;2586;48.710;9.202;2022-11-18T06:56:45;6.60;88.30
5136;DHT22;2586;48.710;9.202;2022-11-18T06:59:11;6.60;85.00
5136;DHT22;2586;48.710;9.202;2022-11-18T07:01:38;6.70;34.30
5136;DHT22;2586;48.710;9.202;2022-11-18T07:04:04;6.70;59.40
5136;DHT22;2586;48.710;9.202;2022-11-18T07:06:32;6.70;53.60
5136;DHT22;2586;48.710;9.202;2022-11-18T07:09:04;6.80;96.30
5136;DHT22;2586;48.710;9.202;2022-11-18T07:11:30;6.70;85.10
5136;DHT22;2586;48.710;9.202;2022-11-18T07:13:55;6.80;88.30
5136;DHT22;2586;48.710;9.202;2022-11-18T07:16:23;6.70;88.60
5136;DHT22;2586;48.710;9.202;2022-11-18T07:18:50;6.80;44.40
5136;DHT22;2586;48.710;9.202;2022-11-18T07:21:18;6.80;41.00
5136;DHT22;2586;48.710;9.202;2022-11-18T07:23:45;6.80;46.80
5136;DHT22;2586;48.710;9.202;2022-11-18T07:26:11;6.80;59.50
5136;DHT22;2586;48.710;9.202;2022-11-18T07:28:37;6.80;51.00
5136;DHT22;2586;48.710;9.202;2022-11-18T07:31:07;6.80;78.60
5136;DHT22;2586;48.710;9.202;2022-11-18T07:33:34;6.90;73.40
5136;DHT22;2586;48.710;9.202;2022-11-18T07:36:10;6.80;66.70
5136;DHT22;2586;48.710;9.202;2022-11-18T07:38:36;6.90;61.10
5136;DHT22;2586;48.710;9.202;2022-11-18T07:41:16;6.90;35.90
5136;DHT22;2586;48.710;9.202;2022-11-18T07:43:43;6.80;11.90
5136;DHT22;2586;48.710;9.202;2022-11-18T07:46:20;6.90;18.40
5136;DHT22;2586;48.710;9.202;2022-11-18T07:48:47;7.00;46.10
5136;DHT22;2586;48.710;9.202;2022-11-18T07:51:15;7.20;99.90
5136;DHT22;2586;48.710;9.202;2022-11-18T07:53:42;7.40;99.90
5136;DHT22;2586;48.710;9.202;2022-11-18T07:56:08;7.60;80.50
5136;DHT22;2586;48.710;9.202;2022-11-18T07:58:35;7.90;29.00
5136;DHT22;2586;48.710;9.202;2022-11-18T08:01:21;8.10;1.00
5136;DHT22;2586;48.710;9.202;2022-11-18T08:03:47;8.30;1.00
5136;DHT22;2586;48.710;9.202;2022-11-18T08:06:15;8.50;99.90
5136;DHT22;2586;48.710;9.202;2022-11-18T08:08:42;8.50;99.90
5136;DHT22;2586;48.710;9.202;2022-11-18T08:11:10;8.40;1.00
5136;DHT22;2586;48.710;9.202;2022-11-18T08:13:36;8.50;99.90
5136;DHT22;2586;48.710;9.202;2022-11-18T08:16:03;8.70;1.00
5136;DHT22;2586;48.710;9.202;2022-11-18T08:18:30;8.70;99.90
5136;DHT22;2586;48.710;9.202;2022-11-18T08:21:03;8.50;99.90
5136;DHT22;2586;48.710;9.202;2022-11-18T08:23:28;8.40;1.00
5136;DHT22;2586;48.710;9.202;2022-11-18T08:26:01;8.40;1.00
5136;DHT22;2586;48.710;9.202;2022-11-18T08:28:28;8.40;1.00
5136;DHT22;2586;48.710;9.202;2022-11-18T08:30:53;8.50;1.00
5136;DHT22;2586;48.710;9.202;2022-11-18T08:33:19;8.40;1.00
5136;DHT22;2586;48.710;9.202;2022-11-18T08:35:44;7.90;99.90
5136;DHT22;2586;48.710;9.202;2022-11-18T08:38:10;7.80;1.00
5136;DHT22;2586;48.710;9.202;2022-11-18T08:40:35;7.70;99.90
5136;DHT22;2586;48.710;9.202;2022-11-18T08:43:01;7.60;1.00
5136;DHT22;2586;48.710;9.202;2022-11-18T08:45:26;7.50;1.00
5136;DHT22;2586;48.710;9.202;2022-11-18T08:47:52;7.50;1.00
5136;DHT22;2586;48.710;9.202;2022-11-18T08:50:18;7.40;1.00
5136;DHT22;2586;48.710;9.202;2022-11-18T08:52:43;7.40;1.00
5136;DHT22;2586;48.710;9.202;2022-11-18T08:55:09;7.30;1.00
5136;DHT22;2586;48.710;9.202;2022-11-18T08:57:34;7.30;1.00
5136;DHT22;2586;48.710;9.202;2022-11-18T09:00:00;7.30;1.00
5136;DHT22;2586;48.710;9.202;2022-11-18T09:02:25;7.30;1.00
5136;DHT22;2586;48.710;9.202;2022-11-18T09:04:51;7.40;11.90
5136;DHT22;2586;48.710;9.202;2022-11-18T09:07:18;7.40;29.80
5136;DHT22;2586;48.710;9.202;2022-11-18T09:09:44;7.40;45.00
5136;DHT22;2586;48.710;9.202;2022-11-18T09:12:10;7.50;28.40
5136;DHT22;2586;48.710;9.202;2022-11-18T09:14:41;7.50;60.80
5136;DHT22;2586;48.710;9.202;2022-11-18T09:17:07;7.60;22.80
5136;DHT22;2586;48.710;9.202;2022-11-18T09:19:32;7.50;16.60
5136;DHT22;2586;48.710;9.202;2022-11-18T09:21:58;7.60;56.30
5136;DHT22;2586;48.710;9.202;2022-11-18T09:24:24;7.60;50.40
5136;DHT22;2586;48.710;9.202;2022-11-18T09:26:49;7.60;18.70
5136;DHT22;2586;48.710;9.202;2022-11-18T09:29:15;7.60;52.80
5136;DHT22;2586;48.710;9.202;2022-11-18T09:31:41;7.70;49.70
5136;DHT22;2586;48.710;9.202;2022-11-18T09:34:06;7.60;41.20
5136;DHT22;2586;48.710;9.202;2022-11-18T09:36:34;7.70;88.00
5136;DHT22;2586;48.710;9.202;2022-11-18T09:39:00;7.60;71.30
5136;DHT22;2586;48.710;9.202;2022-11-18T09:41:43;7.70;99.90
5136;DHT22;2586;48.710;9.202;2022-11-18T09:49:47;7.90;99.90
5136;DHT22;2586;48.710;9.202;2022-11-18T09:55:13;8.10;57.70
5136;DHT22;2586;48.710;9.202;2022-11-18T09:57:44;8.30;23.60
5136;DHT22;2586;48.710;9.202;2022-11-18T10:00:16;8.40;1.00
5136;DHT22;2586;48.710;9.202;2022-11-18T10:05:47;8.70;1.00
5136;DHT22;2586;48.710;9.202;2022-11-18T10:11:23;8.60;1.00
5136;DHT22;2586;48.710;9.202;2022-11-18T10:24:55;8.40;99.90
5136;DHT22;2586;48.710;9.202;2022-11-18T10:27:22;8.40;1.00
5136;DHT22;2586;48.710;9.202;2022-11-18T10:29:54;8.40;99.90
5136;DHT22;2586;48.710;9.202;2022-11-18T10:32:23;8.40;99.90
5136;DHT22;2586;48.710;9.202;2022-11-18T10:34:51;8.30;99.90
5136;DHT22;2586;48.710;9.202;2022-11-18T10:37:34;8.30;99.90
5136;DHT22;2586;48.710;9.202;2022-11-18T10:40:04;8.30;99.90
5136;DHT22;2586;48.710;9.202;2022-11-18T10:42:45;8.30;1.00
5136;DHT22;2586;48.710;9.202;2022-11-18T10:45:22;8.30;99.90
5136;DHT22;2586;48.710;9.202;2022-11-18T10:48:16;8.30;99.90
5136;DHT22;2586;48.710;9.202;2022-11-18T10:50:44;8.40;1.00
5136;DHT22;2586;48.710;9.202;2022-11-18T10:53:43;8.40;1.00
5136;DHT22;2586;48.710;9.202;2022-11-18T10:56:12;8.30;1.00
5136;DHT22;2586;48.710;9.202;2022-11-18T10:58:45;8.40;1.00
5136;DHT22;2586;48.710;9.202;2022-11-18T11:06:27;8.50;1.00
5136;DHT22;2586;48.710;9.202;2022-11-18T11:11:36;8.50;1.00
5136;DHT22;2586;48.710;9.202;2022-11-18T11:14:14;8.60;1.00
5136;DHT22;2586;48.710;9.202;2022-11-18T11:20:05;8.80;1.00
5136;DHT22;2586;48.710;9.202;2022-11-18T11:22:23;8.90;1.00
5136;DHT22;2586;48.710;9.202;2022-11-18T11:24:49;9.00;99.90
5136;DHT22;2586;48.710;9.202;2022-11-18T11:27:58;9.10;99.90
5136;DHT22;2586;48.710;9.202;2022-11-18T11:33:46;9.00;99.90
5136;DHT22;2586;48.710;9.202;2022-11-18T11:41:52;8.80;1.00
5136;DHT22;2586;48.710;9.202;2022-11-18T11:47:26;9.60;1.00
5136;DHT22;2586;48.710;9.202;2022-11-18T11:50:12;9.90;99.90
5136;DHT22;2586;48.710;9.202;2022-11-18T12:06:48;8.90;99.90
5136;DHT22;2586;48.710;9.202;2022-11-18T12:14:36;8.90;1.00
5136;DHT22;2586;48.710;9.202;2022-11-18T12:17:16;8.80;99.90
5136;DHT22;2586;48.710;9.202;2022-11-18T12:19:43;8.70;99.90
5136;DHT22;2586;48.710;9.202;2022-11-18T12:22:08;8.60;1.00
5136;DHT22;2586;48.710;9.202;2022-11-18T12:24:39;8.60;1.00
5136;DHT22;2586;48.710;9.202;2022-11-18T12:29:56;8.40;99.90
5136;DHT22;2586;48.710;9.202;2022-11-18T12:48:55;8.20;1.00
5136;DHT22;2586;48.710;9.202;2022-11-18T12:53:50;8.10;1.00
5136;DHT22;2586;48.710;9.202;2022-11-18T12:56:33;8.20;1.00
5136;DHT22;2586;48.710;9.202;2022-11-18T12:59:01;8.20;1.00
5136;DHT22;2586;48.710;9.202;2022-11-18T13:01:32;8.20;1.00
5136;DHT22;2586;48.710;9.202;2022-11-18T13:04:11;8.50;1.00
5136;DHT22;2586;48.710;9.202;2022-11-18T13:06:39;8.70;1.00
5136;DHT22;2586;48.710;9.202;2022-11-18T13:09:19;9.30;99.90
5136;DHT22;2586;48.710;9.202;2022-11-18T13:11:49;9.90;99.90
5136;DHT22;2586;48.710;9.202;2022-11-18T13:14:28;10.30;99.90
5136;DHT22;2586;48.710;9.202;2022-11-18T13:17:23;10.30;99.90
5136;DHT22;2586;48.710;9.202;2022-11-18T13:20:22;10.00;1.00
5136;DHT22;2586;48.710;9.202;2022-11-18T13:22:53;9.70;1.00
5136;DHT22;2586;48.710;9.202;2022-11-18T13:25:38;9.50;1.00
5136;DHT22;2586;48.710;9.202;2022-11-18T13:28:08;9.40;23.70
5136;DHT22;2586;48.710;9.202;2022-11-18T13:30:44;9.20;1.00
5136;DHT22;2586;48.710;9.202;2022-11-18T13:33:12;9.00;99.90
5136;DHT22;2586;48.710;9.202;2022-11-18T13:35:39;8.80;1.00
5136;DHT22;2586;48.710;9.202;2022-11-18T13:38:05;8.70;1.00
5136;DHT22;2586;48.710;9.202;2022-11-18T13:40:45;8.80;1.00
5136;DHT22;2586;48.710;9.202;2022-11-18T13:43:30;9.70;1.00
5136;DHT22;2586;48.710;9.202;2022-11-18T13:45:59;9.90;1.00
5136;DHT22;2586;48.710;9.202;2022-11-18T13:48:26;11.20;1.00
5136;DHT22;2586;48.710;9.202;2022-11-18T13:50:55;11.10;99.90
5136;DHT22;2586;48.710;9.202;2022-11-18T13:53:36;10.50;1.00
5136;DHT22;2586;48.710;9.202;2022-11-18T13:58:33;10.50;99.90
5136;DHT22;2586;48.710;9.202;2022-11-18T14:01:03;11.10;99.90
5136;DHT22;2586;48.710;9.202;2022-11-18T14:03:33;10.60;1.00
5136;DHT22;2586;48.710;9.202;2022-11-18T14:06:00;11.00;1.00
5136;DHT22;2586;48.710;9.202;2022-11-18T14:08:31;12.00;1.00
5136;DHT22;2586;48.710;9.202;2022-11-18T14:10:58;12.90;20.10
5136;DHT22;2586;48.710;9.202;2022-11-18T14:13:45;12.70;1.00
5136;DHT22;2586;48.710;9.202;2022-11-18T14:18:47;13.10;99.90
5136;DHT22;2586;48.710;9.202;2022-11-18T14:21:28;12.60;99.90
5136;DHT22;2586;48.710;9.202;2022-11-18T14:23:54;13.00;99.90
5136;DHT22;2586;48.710;9.202;2022-11-18T14:26:35;12.80;1.00
5136;DHT22;2586;48.710;9.202;2022-11-18T14:29:13;13.30;1.00
5136;DHT22;2586;48.710;9.202;2022-11-18T14:31:41;13.20;1.00
5136;DHT22;2586;48.710;9.202;2022-11-18T14:34:25;11.90;1.00
5136;DHT22;2586;48.710;9.202;2022-11-18T14:36:51;10.80;1.00
5136;DHT22;2586;48.710;9.202;2022-11-18T14:39:24;10.10;99.90
5136;DHT22;2586;48.710;9.202;2022-11-18T14:41:50;9.70;1.00
5136;DHT22;2586;48.710;9.202;2022-11-18T14:44:18;9.40;99.90
5136;DHT22;2586;48.710;9.202;2022-11-18T14:46:49;9.10;99.90
5136;DHT22;2586;48.710;9.202;2022-11-18T14:49:19;9.00;1.00
5136;DHT22;2586;48.710;9.202;2022-11-18T14:51:46;8.90;1.00
5136;DHT22;2586;48.710;9.202;2022-11-18T14:54:17;8.80;1.00
5136;DHT22;2586;48.710;9.202;2022-11-18T14:56:43;8.80;95.10
5136;DHT22;2586;48.710;9.202;2022-11-18T14:59:14;8.70;99.90
5136;DHT22;2586;48.710;9.202;2022-11-18T15:01:41;8.70;99.90
5136;DHT22;2586;48.710;9.202;2022-11-18T15:04:07;8.70;1.00
5136;DHT22;2586;48.710;9.202;2022-11-18T15:06:32;8.60;1.00
5136;DHT22;2586;48.710;9.202;2022-11-18T15:08:58;8.60;99.90
5136;DHT22;2586;48.710;9.202;2022-11-18T15:11:24;8.50;99.50
5136;DHT22;2586;48.710;9.202;2022-11-18T15:13:49;8.40;1.00
5136;DHT22;2586;48.710;9.202;2022-11-18T15:16:17;8.30;38.00
5136;DHT22;2586;48.710;9.202;2022-11-18T15:18:45;8.30;1.00
5136;DHT22;2586;48.710;9.202;2022-11-18T15:21:11;8.20;99.90
5136;DHT22;2586;48.710;9.202;2022-11-18T15:23:37;8.20;99.90
5136;DHT22;2586;48.710;9.202;2022-11-18T15:26:15;8.10;99.90
5136;DHT22;2586;48.710;9.202;2022-11-18T15:28:41;8.20;99.90
5136;DHT22;2586;48.710;9.202;2022-11-18T15:31:07;8.10;1.00
5136;DHT22;2586;48.710;9.202;2022-11-18T15:33:32;8.10;99.90
5136;DHT22;2586;48.710;9.202;2022-11-18T15:35:58;8.10;1.00
5136;DHT22;2586;48.710;9.202;2022-11-18T15:38:23;8.10;1.00
5136;DHT22;2586;48.710;9.202;2022-11-18T15:40:49;8.00;1.00
5136;DHT22;2586;48.710;9.202;2022-11-18T15:43:14;8.00;99.90
5136;DHT22;2586;48.710;9.202;2022-11-18T15:45:42;8.00;99.90
5136;DHT22;2586;48.710;9.202;2022-11-18T15:48:08;8.00;99.90
5136;DHT22;2586;48.710;9.202;2022-11-18T15:50:33;7.90;99.90
5136;DHT22;2586;48.710;9.202;2022-11-18T15:52:59;7.90;1.00
5136;DHT22;2586;48.710;9.202;2022-11-18T15:55:25;7.90;99.90
5136;DHT22;2586;48.710;9.202;2022-11-18T15:57:50;7.90;1.00
5136;DHT22;2586;48.710;9.202;2022-11-18T16:00:16;7.80;99.90
5136;DHT22;2586;48.710;9.202;2022-11-18T16:02:42;7.80;99.90
5136;DHT22;2586;48.710;9.202;2022-11-18T16:05:08;7.90;1.00
5136;DHT22;2586;48.710;9.202;2022-11-18T16:07:33;7.90;99.90
5136;DHT22;2586;48.710;9.202;2022-11-18T16:09:59;7.80;99.90
5136;DHT22;2586;48.710;9.202;2022-11-18T16:12:43;7.80;99.90
5136;DHT22;2586;48.710;9.202;2022-11-18T16:15:12;7.80;99.90
5136;DHT22;2586;48.710;9.202;2022-11-18T16:17:57;7.70;99.90
5136;DHT22;2586;48.710;9.202;2022-11-18T16:20:26;7.80;99.90
5136;DHT22;2586;48.710;9.202;2022-11-18T16:22:52;7.80;99.90
5136;DHT22;2586;48.710;9.202;2022-11-18T16:25:19;7.80;11.70
5136;DHT22;2586;48.710;9.202;2022-11-18T16:27:44;7.70;1.00
5136;DHT22;2586;48.710;9.202;2022-11-18T16:30:10;7.70;1.00
5136;DHT22;2586;48.710;9.202;2022-11-18T16:32:56;7.70;1.00
5136;DHT22;2586;48.710;9.202;2022-11-18T16:35:22;7.70;39.30
5136;DHT22;2586;48.710;9.202;2022-11-18T16:37:47;7.70;99.90
5136;DHT22;2586;48.710;9.202;2022-11-18T16:40:13;7.70;1.00
5136;DHT22;2586;48.710;9.202;2022-11-18T16:42:38;7.60;1.00
5136;DHT22;2586;48.710;9.202;2022-11-18T16:45:04;7.60;1.00
5136;DHT22;2586;48.710;9.202;2022-11-18T16:47:30;7.60;1.00
5136;DHT22;2586;48.710;9.202;2022-11-18T16:49:56;7.60;1.00
5136;DHT22;2586;48.710;9.202;2022-11-18T16:52:21;7.60;1.00
5136;DHT22;2586;48.710;9.202;2022-11-18T16:54:47;7.60;99.90
5136;DHT22;2586;48.710;9.202;2022-11-18T16:57:12;7.60;1.00
5136;DHT22;2586;48.710;9.202;2022-11-18T16:59:38;7.60;99.90
5136;DHT22;2586;48.710;9.202;2022-11-18T17:02:04;7.50;1.00
5136;DHT22;2586;48.710;9.202;2022-11-18T17:04:30;7.50;80.20
5136;DHT22;2586;48.710;9.202;2022-11-18T17:06:56;7.50;99.90
5136;DHT22;2586;48.710;9.202;2022-11-18T17:09:24;7.50;99.90
5136;DHT22;2586;48.710;9.202;2022-11-18T17:11:51;7.50;99.90
5136;DHT22;2586;48.710;9.202;2022-11-18T17:14:17;7.40;1.00
5136;DHT22;2586;48.710;9.202;2022-11-18T17:16:44;7.40;99.90
5136;DHT22;2586;48.710;9.202;2022-11-18T17:19:18;7.50;1.00
5136;DHT22;2586;48.710;9.202;2022-11-18T17:21:44;7.40;1.00
5136;DHT22;2586;48.710;9.202;2022-11-18T17:24:12;7.40;99.90
5136;DHT22;2586;48.710;9.202;2022-11-18T17:26:38;7.50;1.00
5136;DHT22;2586;48.710;9.202;2022-11-18T17:29:04;7.50;1.00
5136;DHT22;2586;48.710;9.202;2022-11-18T17:31:30;7.50;1.00
5136;DHT22;2586;48.710;9.202;2022-11-18T17:33:55;7.50;1.00
5136;DHT22;2586;48.710;9.202;2022-11-18T17:36:23;7.60;1.00
5136;DHT22;2586;48.710;9.202;2022-11-18T17:38:51;7.60;1.00
5136;DHT22;2586;48.710;9.202;2022-11-18T17:41:19;7.50;1.00
5136;DHT22;2586;48.710;9.202;2022-11-18T17:44:05;7.50;99.90
5136;DHT22;2586;48.710;9.202;2022-11-18T17:46:31;7.50;1.00
5136;DHT22;2586;48.710;9.202;2022-11-18T17:48:58;7.40;1.00
5136;DHT22;2586;48.710;9.202;2022-11-18T17:51:25;7.40;89.10
5136;DHT22;2586;48.710;9.202;2022-11-18T17:53:51;7.40;99.90
5136;DHT22;2586;48.710;9.202;2022-11-18T17:56:17;7.40;99.90
5136;DHT22;2586;48.710;9.202;2022-11-18T17:58:43;7.40;99.90
5136;DHT22;2586;48.710;9.202;2022-11-18T18:01:10;7.40;1.00
5136;DHT22;2586;48.710;9.202;2022-11-18T18:03:36;7.30;1.00
5136;DHT22;2586;48.710;9.202;2022-11-18T18:06:03;7.20;1.00
5136;DHT22;2586;48.710;9.202;2022-11-18T18:08:30;7.20;99.90
5136;DHT22;2586;48.710;9.202;2022-11-18T18:11:19;7.20;1.00
5136;DHT22;2586;48.710;9.202;2022-11-18T18:13:45;7.20;1.00
5136;DHT22;2586;48.710;9.202;2022-11-18T18:16:31;7.10;99.90
5136;DHT22;2586;48.710;9.202;2022-11-18T18:18:59;7.10;1.00
5136;DHT22;2586;48.710;9.202;2022-11-18T18:21:25;7.00;1.00
5136;DHT22;2586;48.710;9.202;2022-11-18T18:23:51;7.00;1.00
5136;DHT22;2586;48.710;9.202;2022-11-18T18:26:17;6.90;99.90
5136;DHT22;2586;48.710;9.202;2022-11-18T18:28:43;6.80;99.90
5136;DHT22;2586;48.710;9.202;2022-11-18T18:31:10;6.80;1.00
5136;DHT22;2586;48.710;9.202;2022-11-18T18:33:37;6.80;99.90
5136;DHT22;2586;48.710;9.202;2022-11-18T18:36:14;6.70;99.90
5136;DHT22;2586;48.710;9.202;2022-11-18T18:38:40;6.70;1.00
5136;DHT22;2586;48.710;9.202;2022-11-18T18:41:18;6.70;1.00